KAWO

Details ICAO KAWO
Name Arlington Municipal
Region United States
Timezone America/Los_Angeles (UTC-7.0)
Plans Departing 42
Arriving 12
Stats Elevation 465 ft / 142 m (AMSL)
Location 48.160406° -122.159723°
Runways 2
Magnetic Variation 15.763° E
Sunrise 2018-05-23 12:21:29 UTC / 2018-05-23 05:21:29 Local
Sunset 2018-05-24 03:52:13 UTC / 2018-05-23 20:52:13 Local
Advertisement - Login to hide

Runways

ID Width Length Bearing (true) Bearing (mag) Surface Threshold Offset Overrun Length
11 75 ft / 23 m 3,512 ft / 1,071 m 127.31° 111.55° Asphalt 0 ft / 0 m 0 ft / 0 m
16 108 ft / 33 m 5,321 ft / 1,622 m 179.06° 163.30° Asphalt 0 ft / 0 m 0 ft / 0 m
29 75 ft / 23 m 3,512 ft / 1,071 m 307.32° 291.56° Asphalt 0 ft / 0 m 0 ft / 0 m
34 108 ft / 33 m 5,321 ft / 1,622 m 359.06° 343.30° Asphalt 0 ft / 0 m 0 ft / 0 m

Approach Navaids

Runway Type Ident Frequency Range Bearing (true) Bearing (mag) Slope Elevation
34 Localiser IAWO 111.50 MHz 18 nm / 33 km 359.09° 343.33° - 465 ft / 142 m (AMSL)

Map

Weather


0- 5 10 15 20 25 30 35+ Temperature / ° C

Clouds and Precipitation
Forecast for 2018-05-24 00:00 UTC. Updated 4 hours ago

Ground ~20,000 ft ~40,000 ft Winds

METAR

KAWO 240256Z AUTO 32008KT 10SM CLR 17/11 A2983 RMK AO2 SLP106 T01670111 51013

TAF

Not found

Frequencies

Recorded 135.62 MHz AWOS 3
Unicom 122.70 MHz CTAF/UNICOM
Warning: Do not use this data for real-world aviation or navigation. No guarantee of current accuracy is given.